OTBH/IUD METAR and TAF weather

Enter ICAO airport designator
Station Type Date Time Source
OTBH METAR 2024/02/26 17:55 UTC NOAA

OTBH 261755Z 34007KT 9999 CLR 19/12 A2993 Q1013 RMK AO2A SLP134 T01850120 10232 20185 52017 FZRANO $


Station Type Date Time Source
OTBH Decoded METAR 2024/02/26 17:55 UTC NOAA

Station name not available
Feb 26, 2024 - 12:55 PM EST / 2024.02.26 1755 UTC
Wind: from the NNW (340 degrees) at 8 MPH (7 KT):0
Visibility: greater than 7 mile(s):0
Sky conditions: clear
Temperature: 65.3 F (18.5 C)
Dew Point: 53.6 F (12.0 C)
Relative Humidity: 65%
Pressure (altimeter): 29.93 in. Hg (1013 hPa)
Pressure tendency: 0.05 inches (1.7 hPa) higher than three hours ago
ob: OTBH 261755Z 34007KT 9999 CLR 19/12 A2993 Q1013 RMK AO2A SLP134 T01850120 10232 20185 52017 FZRANO
cycle: 18

Station Type Date Time Source
OTBH TAF 2024/02/26 16:03 UTC NOAA